createdAt,value
2017-11-30T08:51:23.000Z,-0.75
2017-11-30T08:51:50.000Z,-0.72
2017-11-30T08:52:50.000Z,-0.64
2017-11-30T08:53:50.000Z,-0.58
2017-11-30T08:54:50.000Z,-0.54
2017-11-30T08:55:50.000Z,-0.53
2017-11-30T08:56:50.000Z,-0.53
2017-11-30T08:57:50.000Z,-0.53
2017-11-30T08:58:50.000Z,-0.60
2017-11-30T08:59:50.000Z,-0.73
2017-11-30T09:00:50.000Z,-0.70
2017-11-30T09:01:50.000Z,-0.70
2017-11-30T09:02:50.000Z,-0.69
2017-11-30T09:03:50.000Z,-0.68
2017-11-30T09:04:50.000Z,-0.65
2017-11-30T09:05:50.000Z,-0.65
2017-11-30T09:06:50.000Z,-0.64
2017-11-30T09:07:50.000Z,-0.56
2017-11-30T09:08:50.000Z,-0.43
2017-11-30T09:09:50.000Z,-0.40
2017-11-30T09:10:50.000Z,-0.44
2017-11-30T09:11:50.000Z,-0.38
2017-11-30T09:12:50.000Z,-0.26
2017-11-30T09:13:50.000Z,-0.29
2017-11-30T09:14:50.000Z,-0.33
2017-11-30T09:15:50.000Z,-0.35
2017-11-30T09:16:50.000Z,-0.35
2017-11-30T09:17:50.000Z,-0.28
2017-11-30T09:18:50.000Z,-0.18
2017-11-30T09:19:50.000Z,-0.14
2017-11-30T09:20:50.000Z,-0.13
2017-11-30T09:21:50.000Z,-0.07
2017-11-30T09:22:50.000Z,-0.08
2017-11-30T09:23:50.000Z,-0.11
2017-11-30T09:24:50.000Z,-0.11
2017-11-30T09:25:50.000Z,-0.09
2017-11-30T09:26:50.000Z,-0.06
2017-11-30T09:27:50.000Z,-0.10
2017-11-30T09:28:50.000Z,-0.11
2017-11-30T09:29:50.000Z,-0.16
2017-11-30T09:30:50.000Z,-0.15
2017-11-30T09:31:50.000Z,-0.08
2017-11-30T09:32:50.000Z,0.01
2017-11-30T09:33:50.000Z,0.11
2017-11-30T09:34:50.000Z,0.23
2017-11-30T09:35:50.000Z,0.40
2017-11-30T09:36:50.000Z,0.53
2017-11-30T09:37:50.000Z,0.53
2017-11-30T09:38:50.000Z,0.52
2017-11-30T09:39:50.000Z,0.60
2017-11-30T09:40:50.000Z,0.66
2017-11-30T09:41:50.000Z,0.60
2017-11-30T09:42:50.000Z,0.49
2017-11-30T09:43:50.000Z,0.52
2017-11-30T09:44:50.000Z,0.48
2017-11-30T09:45:50.000Z,0.52
2017-11-30T09:46:50.000Z,0.53
2017-11-30T09:47:50.000Z,0.54
2017-11-30T09:48:50.000Z,0.58
2017-11-30T09:49:50.000Z,0.62
2017-11-30T09:50:50.000Z,0.75
2017-11-30T09:51:50.000Z,0.77
2017-11-30T09:52:50.000Z,0.89
2017-11-30T09:53:50.000Z,1.06
2017-11-30T09:54:50.000Z,1.04
2017-11-30T09:55:50.000Z,1.02
2017-11-30T09:56:50.000Z,0.87
2017-11-30T09:57:50.000Z,0.78
2017-11-30T09:58:50.000Z,0.72
2017-11-30T09:59:50.000Z,0.66
2017-11-30T10:00:50.000Z,0.57
2017-11-30T10:01:50.000Z,0.52
2017-11-30T10:02:50.000Z,0.50
2017-11-30T10:03:50.000Z,0.50
2017-11-30T10:04:50.000Z,0.51
2017-11-30T10:05:50.000Z,0.48
2017-11-30T10:06:50.000Z,0.49
2017-11-30T10:07:50.000Z,0.50
2017-11-30T10:08:50.000Z,0.51
2017-11-30T10:09:50.000Z,0.50
2017-11-30T10:10:50.000Z,0.51
2017-11-30T10:11:50.000Z,0.52
2017-11-30T10:12:50.000Z,0.54
2017-11-30T10:13:50.000Z,0.55
2017-11-30T10:14:50.000Z,0.58
2017-11-30T10:15:50.000Z,0.64
2017-11-30T10:16:50.000Z,0.73
2017-11-30T10:17:50.000Z,0.77
2017-11-30T10:18:50.000Z,0.84
2017-11-30T10:19:50.000Z,0.80
2017-11-30T10:20:50.000Z,0.78
2017-11-30T10:21:50.000Z,0.80
2017-11-30T10:22:50.000Z,0.83
2017-11-30T10:23:52.000Z,0.87
2017-11-30T10:24:50.000Z,0.89
2017-11-30T10:25:50.000Z,0.90
2017-11-30T10:26:50.000Z,0.93
2017-11-30T10:27:50.000Z,0.99
2017-11-30T10:28:50.000Z,1.01
2017-11-30T10:29:50.000Z,1.07
2017-11-30T10:30:50.000Z,1.12
2017-11-30T10:31:50.000Z,1.17
2017-11-30T10:32:50.000Z,1.24
2017-11-30T10:33:50.000Z,1.30
2017-11-30T10:34:50.000Z,1.33
2017-11-30T10:35:50.000Z,1.35
2017-11-30T10:36:50.000Z,1.38
2017-11-30T10:37:50.000Z,1.38
2017-11-30T10:38:50.000Z,1.37
2017-11-30T10:39:50.000Z,1.31
2017-11-30T10:40:50.000Z,1.31
2017-11-30T10:41:50.000Z,1.35
2017-11-30T10:42:50.000Z,1.34
2017-11-30T10:43:50.000Z,1.34
2017-11-30T10:44:50.000Z,1.33
2017-11-30T10:45:50.000Z,1.28
2017-11-30T10:46:50.000Z,1.28
2017-11-30T10:47:50.000Z,1.27
2017-11-30T10:48:50.000Z,1.30
2017-11-30T10:49:50.000Z,1.33
2017-11-30T10:50:50.000Z,1.36
2017-11-30T10:51:51.000Z,1.31
2017-11-30T10:52:50.000Z,1.30
2017-11-30T10:53:50.000Z,1.28
2017-11-30T10:54:50.000Z,1.28
2017-11-30T10:55:50.000Z,1.26
2017-11-30T10:56:50.000Z,1.30
2017-11-30T10:57:50.000Z,1.28
2017-11-30T10:58:50.000Z,1.29
2017-11-30T10:59:50.000Z,1.31
2017-11-30T11:00:50.000Z,1.35
2017-11-30T11:01:50.000Z,1.39
2017-11-30T11:02:50.000Z,1.41
2017-11-30T11:03:50.000Z,1.37
2017-11-30T11:04:50.000Z,1.39
2017-11-30T11:05:50.000Z,1.42
2017-11-30T11:06:50.000Z,1.48
2017-11-30T11:07:50.000Z,1.51
2017-11-30T11:08:51.000Z,1.53
2017-11-30T11:09:50.000Z,1.55
2017-11-30T11:10:50.000Z,1.58
2017-11-30T11:11:50.000Z,1.61
2017-11-30T11:12:50.000Z,1.62
2017-11-30T11:13:50.000Z,1.64
2017-11-30T11:14:51.000Z,1.66
2017-11-30T11:15:50.000Z,1.70
2017-11-30T11:16:51.000Z,1.75
2017-11-30T11:17:50.000Z,1.75
2017-11-30T11:18:50.000Z,1.80
2017-11-30T11:19:51.000Z,1.80
2017-11-30T11:20:51.000Z,1.78
2017-11-30T11:21:51.000Z,1.78
2017-11-30T11:22:51.000Z,1.78
2017-11-30T11:23:51.000Z,1.79
2017-11-30T11:24:51.000Z,1.81
2017-11-30T11:25:51.000Z,1.78
2017-11-30T11:26:51.000Z,1.78
2017-11-30T11:27:51.000Z,1.79
2017-11-30T11:28:51.000Z,1.83
2017-11-30T11:29:51.000Z,1.87
2017-11-30T11:30:51.000Z,1.89
2017-11-30T11:31:51.000Z,1.88
2017-11-30T11:32:51.000Z,1.88
2017-11-30T11:33:51.000Z,1.92
2017-11-30T11:34:51.000Z,1.93
2017-11-30T11:35:51.000Z,1.96
2017-11-30T11:36:51.000Z,1.96
2017-11-30T11:37:51.000Z,1.94
2017-11-30T11:38:51.000Z,1.94
2017-11-30T11:39:51.000Z,1.97
2017-11-30T11:40:51.000Z,2.02
2017-11-30T11:41:51.000Z,2.05
2017-11-30T11:42:51.000Z,2.08
2017-11-30T11:43:51.000Z,2.05
2017-11-30T11:44:51.000Z,2.00
2017-11-30T11:45:51.000Z,2.00
2017-11-30T11:46:51.000Z,2.01
2017-11-30T11:47:51.000Z,2.02
2017-11-30T11:48:51.000Z,2.05
2017-11-30T11:49:51.000Z,1.99
2017-11-30T11:50:51.000Z,2.01
2017-11-30T11:51:51.000Z,2.06
2017-11-30T11:52:51.000Z,2.12
2017-11-30T11:53:51.000Z,2.16
2017-11-30T11:54:51.000Z,2.17
2017-11-30T11:55:51.000Z,2.19
2017-11-30T11:56:51.000Z,2.20
2017-11-30T11:57:51.000Z,2.23
2017-11-30T11:58:51.000Z,2.28
2017-11-30T11:59:51.000Z,2.31
2017-11-30T12:00:51.000Z,2.35
2017-11-30T12:01:51.000Z,2.36
2017-11-30T12:02:51.000Z,2.39
2017-11-30T12:03:51.000Z,2.36
2017-11-30T12:04:51.000Z,2.35
2017-11-30T12:05:51.000Z,2.36
2017-11-30T12:06:51.000Z,2.35
2017-11-30T12:07:51.000Z,2.32
2017-11-30T12:08:51.000Z,2.28
2017-11-30T12:09:51.000Z,2.29
2017-11-30T12:10:51.000Z,2.27
2017-11-30T12:11:51.000Z,2.22
2017-11-30T12:12:51.000Z,2.23
2017-11-30T12:13:51.000Z,2.21
2017-11-30T12:14:51.000Z,2.20
2017-11-30T12:15:51.000Z,2.17
2017-11-30T12:16:51.000Z,2.16
2017-11-30T12:17:51.000Z,2.17
2017-11-30T12:18:51.000Z,2.18
2017-11-30T12:19:51.000Z,2.18
2017-11-30T12:20:51.000Z,2.20
2017-11-30T12:21:51.000Z,2.23
2017-11-30T12:22:51.000Z,2.29
2017-11-30T12:23:51.000Z,2.34
2017-11-30T12:24:51.000Z,2.38
2017-11-30T12:25:51.000Z,2.42
2017-11-30T12:26:51.000Z,2.41
2017-11-30T12:27:51.000Z,2.41
2017-11-30T12:28:51.000Z,2.41
2017-11-30T12:29:51.000Z,2.46
2017-11-30T12:30:51.000Z,2.50
2017-11-30T12:31:51.000Z,2.54
2017-11-30T12:32:51.000Z,2.49
2017-11-30T12:33:51.000Z,2.52
2017-11-30T12:34:51.000Z,2.53
2017-11-30T12:35:51.000Z,2.54
2017-11-30T12:36:51.000Z,2.58
2017-11-30T12:37:51.000Z,2.61
2017-11-30T12:38:51.000Z,2.64
2017-11-30T12:39:51.000Z,2.62
2017-11-30T12:40:51.000Z,2.63
2017-11-30T12:41:51.000Z,2.63
2017-11-30T12:42:51.000Z,2.65
2017-11-30T12:43:51.000Z,2.67
2017-11-30T12:44:51.000Z,2.69
2017-11-30T12:45:51.000Z,2.71
2017-11-30T12:46:51.000Z,2.71
2017-11-30T12:47:51.000Z,2.70
2017-11-30T12:48:51.000Z,2.68
2017-11-30T12:49:51.000Z,2.64
2017-11-30T12:50:51.000Z,2.64
2017-11-30T12:51:51.000Z,2.61
2017-11-30T12:52:51.000Z,2.60
2017-11-30T12:53:51.000Z,2.53
2017-11-30T12:54:51.000Z,2.53
2017-11-30T12:55:51.000Z,2.53
2017-11-30T12:56:51.000Z,2.53
2017-11-30T12:57:51.000Z,2.55
2017-11-30T12:58:51.000Z,2.55
2017-11-30T12:59:51.000Z,2.60
2017-11-30T13:00:51.000Z,2.62
2017-11-30T13:01:51.000Z,2.61
2017-11-30T13:02:51.000Z,2.65
2017-11-30T13:03:51.000Z,2.68
2017-11-30T13:04:51.000Z,2.73
2017-11-30T13:05:51.000Z,2.77
2017-11-30T13:06:51.000Z,2.79
2017-11-30T13:07:51.000Z,2.83
2017-11-30T13:08:51.000Z,2.86
2017-11-30T13:09:51.000Z,2.89
2017-11-30T13:10:51.000Z,2.90
2017-11-30T13:11:51.000Z,2.86
2017-11-30T13:12:51.000Z,2.82
2017-11-30T13:13:51.000Z,2.81
2017-11-30T13:14:51.000Z,2.79
2017-11-30T13:15:51.000Z,2.80
2017-11-30T13:16:51.000Z,2.78
2017-11-30T13:17:51.000Z,2.76
2017-11-30T13:18:51.000Z,2.74
2017-11-30T13:19:51.000Z,2.73
2017-11-30T13:20:51.000Z,2.73
2017-11-30T13:21:51.000Z,2.68
2017-11-30T13:22:51.000Z,2.66
2017-11-30T13:23:51.000Z,2.65
2017-11-30T13:24:51.000Z,2.63
2017-11-30T13:25:51.000Z,2.63
2017-11-30T13:26:51.000Z,2.64
2017-11-30T13:27:51.000Z,2.66
2017-11-30T13:28:51.000Z,2.65
2017-11-30T13:29:51.000Z,2.63
2017-11-30T13:30:51.000Z,2.62
2017-11-30T13:31:51.000Z,2.62
2017-11-30T13:32:51.000Z,2.61
2017-11-30T13:33:51.000Z,2.61
2017-11-30T13:34:51.000Z,2.60
2017-11-30T13:35:51.000Z,2.59
2017-11-30T13:36:51.000Z,2.58
2017-11-30T13:37:51.000Z,2.58
2017-11-30T13:38:51.000Z,2.56
2017-11-30T13:39:51.000Z,2.55
2017-11-30T13:40:51.000Z,2.56
2017-11-30T13:41:51.000Z,2.55
2017-11-30T13:42:51.000Z,2.54
2017-11-30T13:43:51.000Z,2.54
2017-11-30T13:44:51.000Z,2.53
2017-11-30T13:45:51.000Z,2.53
2017-11-30T13:46:51.000Z,2.52
2017-11-30T13:47:51.000Z,2.50
2017-11-30T13:48:51.000Z,2.47
2017-11-30T13:49:51.000Z,2.46
2017-11-30T13:50:51.000Z,2.47
2017-11-30T13:51:51.000Z,2.47
2017-11-30T13:52:51.000Z,2.48
2017-11-30T13:53:51.000Z,2.46
2017-11-30T13:54:51.000Z,2.47
2017-11-30T13:55:51.000Z,2.47
2017-11-30T13:56:51.000Z,2.45
2017-11-30T13:57:51.000Z,2.44
2017-11-30T13:58:51.000Z,2.44
2017-11-30T13:59:51.000Z,2.44
2017-11-30T14:00:51.000Z,2.43
2017-11-30T14:01:51.000Z,2.43
2017-11-30T14:02:51.000Z,2.44
2017-11-30T14:03:51.000Z,2.44
2017-11-30T14:04:51.000Z,2.44
2017-11-30T14:05:51.000Z,2.43
2017-11-30T14:06:51.000Z,2.42
2017-11-30T14:07:51.000Z,2.40
2017-11-30T14:08:51.000Z,2.40
2017-11-30T14:09:51.000Z,2.38
2017-11-30T14:10:51.000Z,2.36
2017-11-30T14:11:51.000Z,2.33
2017-11-30T14:12:51.000Z,2.32
2017-11-30T14:13:51.000Z,2.29
2017-11-30T14:14:51.000Z,2.26
2017-11-30T14:15:51.000Z,2.27
2017-11-30T14:16:51.000Z,2.23
2017-11-30T14:17:51.000Z,2.20
2017-11-30T14:18:51.000Z,2.20
2017-11-30T14:19:51.000Z,2.19
2017-11-30T14:20:51.000Z,2.17
2017-11-30T14:21:51.000Z,2.17
2017-11-30T14:22:51.000Z,2.18
2017-11-30T14:23:51.000Z,2.16
2017-11-30T14:24:51.000Z,2.17
2017-11-30T14:25:51.000Z,2.18
2017-11-30T14:26:51.000Z,2.20
2017-11-30T14:27:51.000Z,2.21
2017-11-30T14:28:51.000Z,2.23
2017-11-30T14:29:51.000Z,2.24
2017-11-30T14:30:51.000Z,2.24
2017-11-30T14:31:51.000Z,2.26
2017-11-30T14:32:51.000Z,2.28
2017-11-30T14:33:51.000Z,2.29
2017-11-30T14:34:51.000Z,2.31
2017-11-30T14:35:51.000Z,2.32
2017-11-30T14:36:51.000Z,2.32
2017-11-30T14:37:51.000Z,2.34
2017-11-30T14:38:51.000Z,2.34
2017-11-30T14:39:51.000Z,2.34
2017-11-30T14:40:51.000Z,2.33
2017-11-30T14:41:51.000Z,2.30
2017-11-30T14:42:51.000Z,2.26
2017-11-30T14:43:51.000Z,2.22
2017-11-30T14:44:51.000Z,2.20
2017-11-30T14:45:51.000Z,2.18
2017-11-30T14:46:51.000Z,2.17
2017-11-30T14:47:51.000Z,2.16
2017-11-30T14:48:51.000Z,2.15
2017-11-30T14:49:51.000Z,2.17
2017-11-30T14:50:51.000Z,2.16
2017-11-30T14:51:51.000Z,2.16
2017-11-30T14:52:51.000Z,2.14
2017-11-30T14:53:51.000Z,2.11
2017-11-30T14:54:51.000Z,2.10
2017-11-30T14:55:51.000Z,2.08
2017-11-30T14:56:51.000Z,2.05
2017-11-30T14:57:51.000Z,2.05
2017-11-30T14:58:51.000Z,2.06
2017-11-30T14:59:51.000Z,2.06
2017-11-30T15:00:51.000Z,2.07
2017-11-30T15:01:51.000Z,2.05
2017-11-30T15:02:51.000Z,2.05
2017-11-30T15:03:51.000Z,2.06
2017-11-30T15:04:51.000Z,2.06
2017-11-30T15:05:51.000Z,2.06
2017-11-30T15:06:51.000Z,2.06
2017-11-30T15:07:51.000Z,2.08
2017-11-30T15:08:51.000Z,2.07
2017-11-30T15:09:51.000Z,2.07
2017-11-30T15:10:51.000Z,2.07
2017-11-30T15:11:51.000Z,2.08
2017-11-30T15:13:28.000Z,2.08
2017-11-30T15:13:51.000Z,2.08
2017-11-30T21:22:49.000Z,0.18
2017-11-30T21:22:52.000Z,0.20
2017-11-30T21:23:52.000Z,0.21
2017-11-30T21:24:52.000Z,0.21
2017-11-30T21:25:52.000Z,0.22
2017-11-30T21:26:52.000Z,0.23
2017-11-30T21:27:52.000Z,0.25
2017-11-30T21:28:52.000Z,0.28
2017-11-30T21:29:52.000Z,0.28
2017-11-30T21:30:52.000Z,0.31
2017-11-30T21:31:52.000Z,0.33
2017-11-30T21:32:52.000Z,0.33
2017-11-30T21:33:52.000Z,0.33
2017-11-30T21:34:52.000Z,0.35
2017-11-30T21:35:52.000Z,0.37
2017-11-30T21:36:52.000Z,0.40
2017-11-30T21:37:52.000Z,0.40
2017-11-30T21:38:52.000Z,0.41
2017-11-30T21:39:52.000Z,0.41
2017-11-30T21:40:52.000Z,0.41
2017-11-30T21:41:52.000Z,0.42
2017-11-30T21:42:52.000Z,0.43
2017-11-30T21:43:52.000Z,0.43
2017-11-30T21:44:52.000Z,0.45
2017-11-30T21:45:52.000Z,0.43
2017-11-30T21:46:52.000Z,0.46
2017-11-30T21:47:52.000Z,0.46
2017-11-30T21:48:52.000Z,0.46
2017-11-30T21:49:52.000Z,0.43
2017-11-30T21:50:52.000Z,0.43
2017-11-30T21:51:52.000Z,0.45
2017-11-30T21:52:52.000Z,0.45
2017-11-30T21:53:52.000Z,0.45
2017-11-30T21:54:53.000Z,0.47
2017-11-30T21:55:52.000Z,0.50
2017-11-30T21:56:52.000Z,0.50
2017-11-30T21:57:52.000Z,0.49
2017-11-30T21:58:52.000Z,0.49
2017-11-30T21:59:52.000Z,0.51
2017-11-30T22:00:52.000Z,0.53
2017-11-30T22:01:52.000Z,0.55
2017-11-30T22:02:52.000Z,0.56
2017-11-30T22:03:52.000Z,0.55
2017-11-30T22:04:52.000Z,0.56
2017-11-30T22:05:52.000Z,0.56
2017-11-30T22:06:52.000Z,0.57
2017-11-30T22:07:52.000Z,0.56
2017-11-30T22:08:52.000Z,0.59
2017-11-30T22:09:52.000Z,0.59
2017-11-30T22:10:52.000Z,0.58
2017-11-30T22:11:52.000Z,0.56
2017-11-30T22:12:52.000Z,0.55
2017-11-30T22:13:52.000Z,0.54
2017-11-30T22:14:52.000Z,0.53
2017-11-30T22:15:52.000Z,0.51
2017-11-30T22:16:53.000Z,0.51
2017-11-30T22:17:52.000Z,0.50
2017-11-30T22:18:52.000Z,0.50
2017-11-30T22:19:52.000Z,0.50
2017-11-30T22:20:52.000Z,0.48
2017-11-30T22:21:52.000Z,0.48
2017-11-30T22:22:52.000Z,0.48
2017-11-30T22:23:52.000Z,0.48
2017-11-30T22:24:52.000Z,0.47
2017-11-30T22:25:52.000Z,0.47
2017-11-30T22:26:52.000Z,0.46
2017-11-30T22:27:52.000Z,0.46
2017-11-30T22:28:52.000Z,0.46
2017-11-30T22:29:52.000Z,0.46
2017-11-30T22:30:52.000Z,0.48
2017-11-30T22:31:52.000Z,0.48
2017-11-30T22:32:52.000Z,0.48
2017-11-30T22:33:52.000Z,0.49
2017-11-30T22:34:52.000Z,0.49
2017-11-30T22:35:52.000Z,0.49
2017-11-30T22:36:52.000Z,0.49
2017-11-30T22:37:52.000Z,0.50
2017-11-30T22:38:52.000Z,0.50
2017-11-30T22:39:52.000Z,0.50
2017-11-30T22:40:52.000Z,0.51
2017-11-30T22:41:52.000Z,0.51
2017-11-30T22:42:52.000Z,0.49
2017-11-30T22:43:52.000Z,0.50
2017-11-30T22:44:52.000Z,0.49
2017-11-30T22:45:53.000Z,0.51
2017-11-30T22:46:52.000Z,0.52
2017-11-30T22:47:52.000Z,0.51
2017-11-30T22:48:52.000Z,0.52
2017-11-30T22:49:53.000Z,0.52
2017-11-30T22:50:53.000Z,0.51
2017-11-30T22:51:53.000Z,0.52
2017-11-30T22:52:53.000Z,0.53
2017-11-30T22:53:53.000Z,0.54
2017-11-30T22:54:53.000Z,0.54
2017-11-30T22:55:53.000Z,0.54
2017-11-30T22:56:53.000Z,0.55
2017-11-30T22:57:53.000Z,0.54
2017-11-30T22:58:53.000Z,0.55
2017-11-30T22:59:53.000Z,0.55
2017-11-30T23:00:53.000Z,0.56
2017-11-30T23:01:53.000Z,0.55
2017-11-30T23:05:45.000Z,0.54
2017-11-30T23:07:16.000Z,0.55
2017-11-30T23:08:43.000Z,0.55
2017-11-30T23:11:56.000Z,0.57
2017-11-30T23:14:37.000Z,0.58
2017-11-30T23:16:38.000Z,0.59
2017-11-30T23:18:37.000Z,0.59
2017-11-30T23:19:48.000Z,0.60
2017-11-30T23:21:18.000Z,0.61
2017-11-30T23:22:56.000Z,0.61
2017-11-30T23:24:12.000Z,0.62
2017-11-30T23:25:09.000Z,0.61
2017-11-30T23:26:43.000Z,0.61
2017-11-30T23:28:15.000Z,0.61
2017-11-30T23:29:48.000Z,0.61
2017-11-30T23:30:57.000Z,0.59
2017-11-30T23:32:37.000Z,0.60
2017-11-30T23:34:10.000Z,0.59
2017-11-30T23:36:35.000Z,0.60
2017-11-30T23:37:12.000Z,0.62
2017-11-30T23:38:28.000Z,0.63
2017-11-30T23:40:13.000Z,0.61
2017-11-30T23:43:49.000Z,0.61
2017-11-30T23:45:01.000Z,0.60
2017-11-30T23:46:32.000Z,0.61
2017-11-30T23:48:37.000Z,0.61
2017-11-30T23:49:41.000Z,0.63
2017-11-30T23:51:20.000Z,0.62
2017-11-30T23:54:00.000Z,0.64
2017-11-30T23:55:57.000Z,0.63
2017-11-30T23:56:42.000Z,0.63
2017-11-30T23:58:22.000Z,0.65
2017-11-30T23:59:24.000Z,0.65
